sensor_id;sensor_type;location;lat;lon;timestamp;temperature;humidity
33476;DHT22;19814;48.224;11.422;2023-09-19T00:00:20;16.20;99.90
33476;DHT22;19814;48.224;11.422;2023-09-19T00:02:56;16.30;99.90
33476;DHT22;19814;48.224;11.422;2023-09-19T00:05:23;16.30;99.90
33476;DHT22;19814;48.224;11.422;2023-09-19T00:07:50;16.40;99.90
33476;DHT22;19814;48.224;11.422;2023-09-19T00:10:19;16.40;99.90
33476;DHT22;19814;48.224;11.422;2023-09-19T00:12:47;16.50;99.90
33476;DHT22;19814;48.224;11.422;2023-09-19T00:15:12;16.50;99.90
33476;DHT22;19814;48.224;11.422;2023-09-19T00:17:38;16.50;99.90
33476;DHT22;19814;48.224;11.422;2023-09-19T00:20:06;16.60;99.90
33476;DHT22;19814;48.224;11.422;2023-09-19T00:22:39;16.50;99.90
33476;DHT22;19814;48.224;11.422;2023-09-19T00:25:05;16.50;99.90
33476;DHT22;19814;48.224;11.422;2023-09-19T00:27:31;16.40;99.90
33476;DHT22;19814;48.224;11.422;2023-09-19T00:29:59;16.40;99.90
33476;DHT22;19814;48.224;11.422;2023-09-19T00:32:25;16.40;99.90
33476;DHT22;19814;48.224;11.422;2023-09-19T00:34:56;16.40;99.90
33476;DHT22;19814;48.224;11.422;2023-09-19T00:37:21;16.50;99.90
33476;DHT22;19814;48.224;11.422;2023-09-19T00:39:47;16.50;99.90
33476;DHT22;19814;48.224;11.422;2023-09-19T00:42:22;16.50;99.90
33476;DHT22;19814;48.224;11.422;2023-09-19T00:44:48;16.50;99.90
33476;DHT22;19814;48.224;11.422;2023-09-19T00:47:17;16.60;99.90
33476;DHT22;19814;48.224;11.422;2023-09-19T00:49:43;16.60;99.90
33476;DHT22;19814;48.224;11.422;2023-09-19T00:52:10;16.60;99.90
33476;DHT22;19814;48.224;11.422;2023-09-19T00:54:37;16.60;99.90
33476;DHT22;19814;48.224;11.422;2023-09-19T00:57:03;16.60;99.90
33476;DHT22;19814;48.224;11.422;2023-09-19T00:59:28;16.60;99.90
33476;DHT22;19814;48.224;11.422;2023-09-19T01:01:56;16.50;99.90
33476;DHT22;19814;48.224;11.422;2023-09-19T01:04:22;16.50;99.90
33476;DHT22;19814;48.224;11.422;2023-09-19T01:06:49;16.50;99.90
33476;DHT22;19814;48.224;11.422;2023-09-19T01:09:19;16.50;99.90
33476;DHT22;19814;48.224;11.422;2023-09-19T01:11:48;16.60;99.90
33476;DHT22;19814;48.224;11.422;2023-09-19T01:17:29;16.60;99.90
33476;DHT22;19814;48.224;11.422;2023-09-19T01:20:19;16.60;99.90
33476;DHT22;19814;48.224;11.422;2023-09-19T01:23:11;16.60;99.90
33476;DHT22;19814;48.224;11.422;2023-09-19T01:26:06;16.60;99.90
33476;DHT22;19814;48.224;11.422;2023-09-19T01:28:51;16.60;99.90
33476;DHT22;19814;48.224;11.422;2023-09-19T01:31:20;16.60;99.90
33476;DHT22;19814;48.224;11.422;2023-09-19T01:34:00;16.70;99.90
33476;DHT22;19814;48.224;11.422;2023-09-19T01:36:32;16.70;99.90
33476;DHT22;19814;48.224;11.422;2023-09-19T01:39:08;16.70;99.90
33476;DHT22;19814;48.224;11.422;2023-09-19T01:41:54;16.70;99.90
33476;DHT22;19814;48.224;11.422;2023-09-19T01:44:31;16.80;99.90
33476;DHT22;19814;48.224;11.422;2023-09-19T01:47:02;16.80;99.90
33476;DHT22;19814;48.224;11.422;2023-09-19T01:49:43;16.80;99.90
33476;DHT22;19814;48.224;11.422;2023-09-19T01:52:12;16.80;99.90
33476;DHT22;19814;48.224;11.422;2023-09-19T01:54:52;16.80;99.90
33476;DHT22;19814;48.224;11.422;2023-09-19T01:57:28;16.80;99.90
33476;DHT22;19814;48.224;11.422;2023-09-19T02:00:09;16.80;99.90
33476;DHT22;19814;48.224;11.422;2023-09-19T02:02:38;16.80;99.90
33476;DHT22;19814;48.224;11.422;2023-09-19T02:05:05;16.80;99.90
33476;DHT22;19814;48.224;11.422;2023-09-19T02:07:31;16.80;99.90
33476;DHT22;19814;48.224;11.422;2023-09-19T02:10:00;16.80;99.90
33476;DHT22;19814;48.224;11.422;2023-09-19T02:12:26;16.70;99.90
33476;DHT22;19814;48.224;11.422;2023-09-19T02:14:52;16.80;99.90
33476;DHT22;19814;48.224;11.422;2023-09-19T02:17:18;16.80;99.90
33476;DHT22;19814;48.224;11.422;2023-09-19T02:19:44;16.80;99.90
33476;DHT22;19814;48.224;11.422;2023-09-19T02:22:10;16.80;99.90
33476;DHT22;19814;48.224;11.422;2023-09-19T02:24:37;16.80;99.90
33476;DHT22;19814;48.224;11.422;2023-09-19T02:27:04;16.80;99.90
33476;DHT22;19814;48.224;11.422;2023-09-19T02:29:31;16.80;99.90
33476;DHT22;19814;48.224;11.422;2023-09-19T02:31:57;16.80;99.90
33476;DHT22;19814;48.224;11.422;2023-09-19T02:34:23;16.80;99.90
33476;DHT22;19814;48.224;11.422;2023-09-19T02:36:50;16.80;99.90
33476;DHT22;19814;48.224;11.422;2023-09-19T02:39:17;16.70;99.90
33476;DHT22;19814;48.224;11.422;2023-09-19T02:41:43;16.70;99.90
33476;DHT22;19814;48.224;11.422;2023-09-19T02:44:08;16.70;99.90
33476;DHT22;19814;48.224;11.422;2023-09-19T02:46:34;16.70;99.90
33476;DHT22;19814;48.224;11.422;2023-09-19T02:49:03;16.70;99.90
33476;DHT22;19814;48.224;11.422;2023-09-19T02:51:31;16.70;99.90
33476;DHT22;19814;48.224;11.422;2023-09-19T02:54:01;16.60;99.90
33476;DHT22;19814;48.224;11.422;2023-09-19T02:56:28;16.60;99.90
33476;DHT22;19814;48.224;11.422;2023-09-19T02:58:55;16.60;99.90
33476;DHT22;19814;48.224;11.422;2023-09-19T03:01:21;16.70;99.90
33476;DHT22;19814;48.224;11.422;2023-09-19T03:03:46;16.60;99.90
33476;DHT22;19814;48.224;11.422;2023-09-19T03:06:12;16.70;99.90
33476;DHT22;19814;48.224;11.422;2023-09-19T03:08:38;16.60;99.90
33476;DHT22;19814;48.224;11.422;2023-09-19T03:11:05;16.60;99.90
33476;DHT22;19814;48.224;11.422;2023-09-19T03:13:32;16.60;99.90
33476;DHT22;19814;48.224;11.422;2023-09-19T03:15:58;16.60;99.90
33476;DHT22;19814;48.224;11.422;2023-09-19T03:18:24;16.60;99.90
33476;DHT22;19814;48.224;11.422;2023-09-19T03:20:55;16.60;99.90
33476;DHT22;19814;48.224;11.422;2023-09-19T03:23:22;16.60;99.90
33476;DHT22;19814;48.224;11.422;2023-09-19T03:25:47;16.50;99.90
33476;DHT22;19814;48.224;11.422;2023-09-19T03:28:14;16.50;99.90
33476;DHT22;19814;48.224;11.422;2023-09-19T03:30:41;16.50;99.90
33476;DHT22;19814;48.224;11.422;2023-09-19T03:33:07;16.50;99.90
33476;DHT22;19814;48.224;11.422;2023-09-19T03:35:33;16.50;99.90
33476;DHT22;19814;48.224;11.422;2023-09-19T03:38:00;16.50;99.90
33476;DHT22;19814;48.224;11.422;2023-09-19T03:40:25;16.50;99.90
33476;DHT22;19814;48.224;11.422;2023-09-19T03:42:51;16.50;99.90
33476;DHT22;19814;48.224;11.422;2023-09-19T03:45:16;16.50;99.90
33476;DHT22;19814;48.224;11.422;2023-09-19T03:47:43;16.60;99.90
33476;DHT22;19814;48.224;11.422;2023-09-19T03:50:09;16.60;99.90
33476;DHT22;19814;48.224;11.422;2023-09-19T03:52:40;16.60;99.90
33476;DHT22;19814;48.224;11.422;2023-09-19T03:55:06;16.60;99.90
33476;DHT22;19814;48.224;11.422;2023-09-19T03:57:32;16.60;99.90
33476;DHT22;19814;48.224;11.422;2023-09-19T03:59:57;16.60;99.90
33476;DHT22;19814;48.224;11.422;2023-09-19T04:02:23;16.60;99.90
33476;DHT22;19814;48.224;11.422;2023-09-19T04:04:50;16.60;99.90
33476;DHT22;19814;48.224;11.422;2023-09-19T04:07:16;16.60;99.90
33476;DHT22;19814;48.224;11.422;2023-09-19T04:09:42;16.70;99.90
33476;DHT22;19814;48.224;11.422;2023-09-19T04:12:08;16.70;99.90
33476;DHT22;19814;48.224;11.422;2023-09-19T04:14:36;16.70;99.90
33476;DHT22;19814;48.224;11.422;2023-09-19T04:17:02;16.70;99.90
33476;DHT22;19814;48.224;11.422;2023-09-19T04:19:28;16.70;99.90
33476;DHT22;19814;48.224;11.422;2023-09-19T04:21:54;16.70;99.90
33476;DHT22;19814;48.224;11.422;2023-09-19T04:24:19;16.70;99.90
33476;DHT22;19814;48.224;11.422;2023-09-19T04:26:45;16.70;99.90
33476;DHT22;19814;48.224;11.422;2023-09-19T04:29:11;16.70;99.90
33476;DHT22;19814;48.224;11.422;2023-09-19T04:31:39;16.70;99.90
33476;DHT22;19814;48.224;11.422;2023-09-19T04:34:06;16.70;99.90
33476;DHT22;19814;48.224;11.422;2023-09-19T04:36:33;16.70;99.90
33476;DHT22;19814;48.224;11.422;2023-09-19T04:38:58;16.70;99.90
33476;DHT22;19814;48.224;11.422;2023-09-19T04:41:24;16.70;99.90
33476;DHT22;19814;48.224;11.422;2023-09-19T04:43:49;16.70;99.90
33476;DHT22;19814;48.224;11.422;2023-09-19T04:46:16;16.70;99.90
33476;DHT22;19814;48.224;11.422;2023-09-19T04:48:43;16.70;99.90
33476;DHT22;19814;48.224;11.422;2023-09-19T04:51:08;16.70;99.90
33476;DHT22;19814;48.224;11.422;2023-09-19T04:53:34;16.70;99.90
33476;DHT22;19814;48.224;11.422;2023-09-19T04:55:59;16.70;99.90
33476;DHT22;19814;48.224;11.422;2023-09-19T04:58:25;16.70;99.90
33476;DHT22;19814;48.224;11.422;2023-09-19T05:00:50;16.70;99.90
33476;DHT22;19814;48.224;11.422;2023-09-19T05:03:17;16.70;99.90
33476;DHT22;19814;48.224;11.422;2023-09-19T05:05:43;16.70;99.90
33476;DHT22;19814;48.224;11.422;2023-09-19T05:08:08;16.80;99.90
33476;DHT22;19814;48.224;11.422;2023-09-19T05:10:35;16.80;99.90
33476;DHT22;19814;48.224;11.422;2023-09-19T05:13:04;16.70;99.90
33476;DHT22;19814;48.224;11.422;2023-09-19T05:15:30;16.80;99.90
33476;DHT22;19814;48.224;11.422;2023-09-19T05:17:56;16.80;99.90
33476;DHT22;19814;48.224;11.422;2023-09-19T05:20:22;16.70;99.90
33476;DHT22;19814;48.224;11.422;2023-09-19T05:23:04;16.70;99.90
33476;DHT22;19814;48.224;11.422;2023-09-19T05:25:34;16.70;99.90
33476;DHT22;19814;48.224;11.422;2023-09-19T05:28:03;16.70;99.90
33476;DHT22;19814;48.224;11.422;2023-09-19T05:30:29;16.80;99.90
33476;DHT22;19814;48.224;11.422;2023-09-19T05:32:55;16.80;99.90
33476;DHT22;19814;48.224;11.422;2023-09-19T05:35:21;16.80;99.90
33476;DHT22;19814;48.224;11.422;2023-09-19T05:37:48;16.80;99.90
33476;DHT22;19814;48.224;11.422;2023-09-19T05:40:17;16.80;99.90
33476;DHT22;19814;48.224;11.422;2023-09-19T05:42:42;16.80;99.90
33476;DHT22;19814;48.224;11.422;2023-09-19T05:45:10;16.90;99.90
33476;DHT22;19814;48.224;11.422;2023-09-19T05:47:41;16.90;99.90
33476;DHT22;19814;48.224;11.422;2023-09-19T05:50:09;16.90;99.90
33476;DHT22;19814;48.224;11.422;2023-09-19T05:52:35;16.90;99.90
33476;DHT22;19814;48.224;11.422;2023-09-19T05:55:00;16.90;99.90
33476;DHT22;19814;48.224;11.422;2023-09-19T05:57:26;16.90;99.90
33476;DHT22;19814;48.224;11.422;2023-09-19T05:59:53;16.90;99.90
33476;DHT22;19814;48.224;11.422;2023-09-19T06:02:18;17.00;99.90
33476;DHT22;19814;48.224;11.422;2023-09-19T06:04:45;17.00;99.90
33476;DHT22;19814;48.224;11.422;2023-09-19T06:07:10;17.00;99.90
33476;DHT22;19814;48.224;11.422;2023-09-19T06:09:36;17.00;99.90
33476;DHT22;19814;48.224;11.422;2023-09-19T06:12:02;17.00;99.90
33476;DHT22;19814;48.224;11.422;2023-09-19T06:14:29;17.10;99.90
33476;DHT22;19814;48.224;11.422;2023-09-19T06:16:54;17.10;99.90
33476;DHT22;19814;48.224;11.422;2023-09-19T06:19:20;17.10;99.90
33476;DHT22;19814;48.224;11.422;2023-09-19T06:21:48;17.20;99.90
33476;DHT22;19814;48.224;11.422;2023-09-19T06:24:14;17.20;99.90
33476;DHT22;19814;48.224;11.422;2023-09-19T06:26:40;17.20;99.90
33476;DHT22;19814;48.224;11.422;2023-09-19T06:29:06;17.20;99.90
33476;DHT22;19814;48.224;11.422;2023-09-19T06:31:34;17.30;99.90
33476;DHT22;19814;48.224;11.422;2023-09-19T06:33:59;17.30;99.90
33476;DHT22;19814;48.224;11.422;2023-09-19T06:36:25;17.30;99.90
33476;DHT22;19814;48.224;11.422;2023-09-19T06:38:50;17.40;99.90
33476;DHT22;19814;48.224;11.422;2023-09-19T06:41:19;17.50;99.90
33476;DHT22;19814;48.224;11.422;2023-09-19T06:43:46;17.80;99.90
33476;DHT22;19814;48.224;11.422;2023-09-19T06:46:12;17.90;99.90
33476;DHT22;19814;48.224;11.422;2023-09-19T06:48:38;18.10;99.90
33476;DHT22;19814;48.224;11.422;2023-09-19T06:51:03;18.20;99.90
33476;DHT22;19814;48.224;11.422;2023-09-19T06:53:33;18.30;99.90
33476;DHT22;19814;48.224;11.422;2023-09-19T06:56:00;18.40;99.90
33476;DHT22;19814;48.224;11.422;2023-09-19T06:58:25;18.50;99.90
33476;DHT22;19814;48.224;11.422;2023-09-19T07:00:51;18.50;99.90
33476;DHT22;19814;48.224;11.422;2023-09-19T07:03:16;18.50;99.90
33476;DHT22;19814;48.224;11.422;2023-09-19T07:05:44;18.50;99.90
33476;DHT22;19814;48.224;11.422;2023-09-19T07:08:10;18.50;99.90
33476;DHT22;19814;48.224;11.422;2023-09-19T07:10:38;18.50;99.90
33476;DHT22;19814;48.224;11.422;2023-09-19T07:13:07;18.50;99.90
33476;DHT22;19814;48.224;11.422;2023-09-19T07:15:37;18.40;99.90
33476;DHT22;19814;48.224;11.422;2023-09-19T07:18:06;18.30;99.90
33476;DHT22;19814;48.224;11.422;2023-09-19T07:20:32;18.30;99.90
33476;DHT22;19814;48.224;11.422;2023-09-19T07:23:00;18.30;99.90
33476;DHT22;19814;48.224;11.422;2023-09-19T07:25:29;18.20;99.90
33476;DHT22;19814;48.224;11.422;2023-09-19T07:27:55;18.20;99.90
33476;DHT22;19814;48.224;11.422;2023-09-19T07:30:21;18.40;99.90
33476;DHT22;19814;48.224;11.422;2023-09-19T07:32:47;18.60;99.90
33476;DHT22;19814;48.224;11.422;2023-09-19T07:35:13;18.90;99.90
33476;DHT22;19814;48.224;11.422;2023-09-19T07:37:40;19.10;99.90
33476;DHT22;19814;48.224;11.422;2023-09-19T07:40:06;19.10;99.90
33476;DHT22;19814;48.224;11.422;2023-09-19T07:42:38;19.10;99.90
33476;DHT22;19814;48.224;11.422;2023-09-19T07:45:06;19.10;99.90
33476;DHT22;19814;48.224;11.422;2023-09-19T07:47:33;19.50;99.90
33476;DHT22;19814;48.224;11.422;2023-09-19T07:49:59;20.00;99.90
33476;DHT22;19814;48.224;11.422;2023-09-19T07:52:28;20.40;99.90
33476;DHT22;19814;48.224;11.422;2023-09-19T07:54:54;20.60;99.90
33476;DHT22;19814;48.224;11.422;2023-09-19T07:57:20;20.30;99.90
33476;DHT22;19814;48.224;11.422;2023-09-19T07:59:46;20.00;99.90
33476;DHT22;19814;48.224;11.422;2023-09-19T08:02:11;19.90;99.90
33476;DHT22;19814;48.224;11.422;2023-09-19T08:04:44;19.70;99.90
33476;DHT22;19814;48.224;11.422;2023-09-19T08:07:12;19.60;99.90
33476;DHT22;19814;48.224;11.422;2023-09-19T08:09:38;19.60;99.90
33476;DHT22;19814;48.224;11.422;2023-09-19T08:12:05;19.50;99.90
33476;DHT22;19814;48.224;11.422;2023-09-19T08:14:33;19.50;99.90
33476;DHT22;19814;48.224;11.422;2023-09-19T08:16:58;19.50;99.90
33476;DHT22;19814;48.224;11.422;2023-09-19T08:19:24;19.70;99.90
33476;DHT22;19814;48.224;11.422;2023-09-19T08:21:57;20.30;99.90
33476;DHT22;19814;48.224;11.422;2023-09-19T08:24:27;20.90;99.90
33476;DHT22;19814;48.224;11.422;2023-09-19T08:26:57;21.20;99.90
33476;DHT22;19814;48.224;11.422;2023-09-19T08:29:24;21.60;99.50
33476;DHT22;19814;48.224;11.422;2023-09-19T08:31:56;21.90;98.70
33476;DHT22;19814;48.224;11.422;2023-09-19T08:34:25;21.90;97.90
33476;DHT22;19814;48.224;11.422;2023-09-19T08:36:54;21.80;99.00
33476;DHT22;19814;48.224;11.422;2023-09-19T08:39:26;22.20;97.70
33476;DHT22;19814;48.224;11.422;2023-09-19T08:41:59;22.30;97.10
33476;DHT22;19814;48.224;11.422;2023-09-19T08:44:25;22.10;97.50
33476;DHT22;19814;48.224;11.422;2023-09-19T08:46:55;22.10;97.00
33476;DHT22;19814;48.224;11.422;2023-09-19T08:50:00;22.40;98.50
33476;DHT22;19814;48.224;11.422;2023-09-19T08:52:32;22.70;96.60
33476;DHT22;19814;48.224;11.422;2023-09-19T08:55:01;22.20;96.50
33476;DHT22;19814;48.224;11.422;2023-09-19T08:57:33;22.00;97.20
33476;DHT22;19814;48.224;11.422;2023-09-19T09:00:02;21.90;98.00
33476;DHT22;19814;48.224;11.422;2023-09-19T09:02:31;22.20;96.80
33476;DHT22;19814;48.224;11.422;2023-09-19T09:04:59;22.50;97.50
33476;DHT22;19814;48.224;11.422;2023-09-19T09:07:25;22.80;95.70
33476;DHT22;19814;48.224;11.422;2023-09-19T09:09:53;23.10;95.00
33476;DHT22;19814;48.224;11.422;2023-09-19T09:12:18;23.10;94.80
33476;DHT22;19814;48.224;11.422;2023-09-19T09:14:47;22.50;94.70
33476;DHT22;19814;48.224;11.422;2023-09-19T09:17:16;22.20;95.20
33476;DHT22;19814;48.224;11.422;2023-09-19T09:19:46;22.50;94.70
33476;DHT22;19814;48.224;11.422;2023-09-19T09:22:12;22.50;94.20
33476;DHT22;19814;48.224;11.422;2023-09-19T09:24:51;22.40;93.90
33476;DHT22;19814;48.224;11.422;2023-09-19T09:27:19;22.50;94.60
33476;DHT22;19814;48.224;11.422;2023-09-19T09:29:48;23.00;94.30
33476;DHT22;19814;48.224;11.422;2023-09-19T09:34:57;24.30;95.10
33476;DHT22;19814;48.224;11.422;2023-09-19T09:37:24;25.00;90.60
33476;DHT22;19814;48.224;11.422;2023-09-19T09:39:56;24.70;92.20
33476;DHT22;19814;48.224;11.422;2023-09-19T09:42:34;24.60;91.50
33476;DHT22;19814;48.224;11.422;2023-09-19T09:45:15;24.00;90.90
33476;DHT22;19814;48.224;11.422;2023-09-19T09:50:27;24.80;90.40
33476;DHT22;19814;48.224;11.422;2023-09-19T09:52:56;24.60;90.20
33476;DHT22;19814;48.224;11.422;2023-09-19T09:58:23;24.50;88.70
33476;DHT22;19814;48.224;11.422;2023-09-19T10:00:58;25.20;90.90
33476;DHT22;19814;48.224;11.422;2023-09-19T10:03:40;26.00;87.50
33476;DHT22;19814;48.224;11.422;2023-09-19T10:06:08;26.70;88.40
33476;DHT22;19814;48.224;11.422;2023-09-19T10:09:04;28.20;84.30
33476;DHT22;19814;48.224;11.422;2023-09-19T10:11:43;27.90;81.50
33476;DHT22;19814;48.224;11.422;2023-09-19T10:14:17;28.10;79.30
33476;DHT22;19814;48.224;11.422;2023-09-19T10:16:46;28.40;82.50
33476;DHT22;19814;48.224;11.422;2023-09-19T10:19:21;28.50;79.70
33476;DHT22;19814;48.224;11.422;2023-09-19T10:21:49;28.90;75.20
33476;DHT22;19814;48.224;11.422;2023-09-19T10:24:16;28.10;75.90
33476;DHT22;19814;48.224;11.422;2023-09-19T10:26:44;27.50;80.40
33476;DHT22;19814;48.224;11.422;2023-09-19T10:29:13;28.10;80.20
33476;DHT22;19814;48.224;11.422;2023-09-19T10:31:39;28.30;79.50
33476;DHT22;19814;48.224;11.422;2023-09-19T10:34:16;27.70;78.70
33476;DHT22;19814;48.224;11.422;2023-09-19T10:36:45;27.20;80.80
33476;DHT22;19814;48.224;11.422;2023-09-19T10:39:11;27.20;79.90
33476;DHT22;19814;48.224;11.422;2023-09-19T10:41:39;27.40;81.50
33476;DHT22;19814;48.224;11.422;2023-09-19T10:44:05;27.00;80.10
33476;DHT22;19814;48.224;11.422;2023-09-19T10:46:32;26.10;78.80
33476;DHT22;19814;48.224;11.422;2023-09-19T10:49:00;24.80;82.30
33476;DHT22;19814;48.224;11.422;2023-09-19T10:51:31;24.30;84.40
33476;DHT22;19814;48.224;11.422;2023-09-19T10:54:06;24.20;85.80
33476;DHT22;19814;48.224;11.422;2023-09-19T10:56:38;23.50;84.00
33476;DHT22;19814;48.224;11.422;2023-09-19T10:59:11;23.00;86.80
33476;DHT22;19814;48.224;11.422;2023-09-19T11:01:46;22.80;88.10
33476;DHT22;19814;48.224;11.422;2023-09-19T11:07:09;23.40;86.50
33476;DHT22;19814;48.224;11.422;2023-09-19T11:09:47;23.50;87.30
33476;DHT22;19814;48.224;11.422;2023-09-19T11:27:09;22.70;90.10
33476;DHT22;19814;48.224;11.422;2023-09-19T11:29:36;22.30;90.40
33476;DHT22;19814;48.224;11.422;2023-09-19T11:32:03;22.20;90.70
33476;DHT22;19814;48.224;11.422;2023-09-19T11:34:42;22.50;91.10
33476;DHT22;19814;48.224;11.422;2023-09-19T11:39:37;24.50;85.80
33476;DHT22;19814;48.224;11.422;2023-09-19T11:42:43;24.70;84.80
33476;DHT22;19814;48.224;11.422;2023-09-19T11:48:16;23.80;85.60
33476;DHT22;19814;48.224;11.422;2023-09-19T11:50:45;23.00;87.50
33476;DHT22;19814;48.224;11.422;2023-09-19T11:53:12;22.70;88.40
33476;DHT22;19814;48.224;11.422;2023-09-19T11:55:39;23.60;86.30
33476;DHT22;19814;48.224;11.422;2023-09-19T11:58:08;24.10;86.10
33476;DHT22;19814;48.224;11.422;2023-09-19T12:00:35;24.10;85.70
33476;DHT22;19814;48.224;11.422;2023-09-19T12:03:08;23.80;86.50
33476;DHT22;19814;48.224;11.422;2023-09-19T12:05:34;24.00;86.80
33476;DHT22;19814;48.224;11.422;2023-09-19T12:08:00;24.50;84.80
33476;DHT22;19814;48.224;11.422;2023-09-19T12:10:27;24.30;85.10
33476;DHT22;19814;48.224;11.422;2023-09-19T12:12:52;24.10;87.10
33476;DHT22;19814;48.224;11.422;2023-09-19T12:15:25;24.30;84.80
33476;DHT22;19814;48.224;11.422;2023-09-19T12:18:00;23.80;85.50
33476;DHT22;19814;48.224;11.422;2023-09-19T12:20:43;23.50;87.00
33476;DHT22;19814;48.224;11.422;2023-09-19T12:23:14;23.40;88.50
33476;DHT22;19814;48.224;11.422;2023-09-19T12:25:44;23.40;89.70
33476;DHT22;19814;48.224;11.422;2023-09-19T12:28:15;23.80;88.40
33476;DHT22;19814;48.224;11.422;2023-09-19T12:30:42;23.70;89.30
33476;DHT22;19814;48.224;11.422;2023-09-19T12:33:18;23.40;89.10
33476;DHT22;19814;48.224;11.422;2023-09-19T12:35:45;23.00;89.70
33476;DHT22;19814;48.224;11.422;2023-09-19T12:38:13;22.60;90.50
33476;DHT22;19814;48.224;11.422;2023-09-19T12:40:49;22.30;91.20
33476;DHT22;19814;48.224;11.422;2023-09-19T12:43:17;21.90;91.50
33476;DHT22;19814;48.224;11.422;2023-09-19T12:45:43;21.70;91.50
33476;DHT22;19814;48.224;11.422;2023-09-19T12:51:04;21.60;92.40
33476;DHT22;19814;48.224;11.422;2023-09-19T12:53:36;21.90;91.50
33476;DHT22;19814;48.224;11.422;2023-09-19T12:56:06;22.20;91.30
33476;DHT22;19814;48.224;11.422;2023-09-19T12:58:34;22.40;91.20
33476;DHT22;19814;48.224;11.422;2023-09-19T13:01:00;22.60;90.80
33476;DHT22;19814;48.224;11.422;2023-09-19T13:03:27;22.70;91.00
33476;DHT22;19814;48.224;11.422;2023-09-19T13:06:03;22.70;90.50
33476;DHT22;19814;48.224;11.422;2023-09-19T13:08:38;22.80;90.40
33476;DHT22;19814;48.224;11.422;2023-09-19T13:13:36;23.00;90.40
33476;DHT22;19814;48.224;11.422;2023-09-19T13:16:02;23.00;90.50
33476;DHT22;19814;48.224;11.422;2023-09-19T13:18:30;23.10;90.30
33476;DHT22;19814;48.224;11.422;2023-09-19T13:21:09;23.20;90.70
33476;DHT22;19814;48.224;11.422;2023-09-19T13:23:53;23.40;89.50
33476;DHT22;19814;48.224;11.422;2023-09-19T13:26:22;23.30;89.80
33476;DHT22;19814;48.224;11.422;2023-09-19T13:28:48;23.20;90.00
33476;DHT22;19814;48.224;11.422;2023-09-19T13:31:16;23.10;90.60
33476;DHT22;19814;48.224;11.422;2023-09-19T13:33:48;23.00;90.20
33476;DHT22;19814;48.224;11.422;2023-09-19T13:36:14;23.00;90.40
33476;DHT22;19814;48.224;11.422;2023-09-19T13:38:43;23.10;90.90
33476;DHT22;19814;48.224;11.422;2023-09-19T13:41:12;23.10;90.40
33476;DHT22;19814;48.224;11.422;2023-09-19T13:43:38;23.10;90.00
33476;DHT22;19814;48.224;11.422;2023-09-19T13:46:04;22.90;90.50
33476;DHT22;19814;48.224;11.422;2023-09-19T13:48:33;23.00;90.20
33476;DHT22;19814;48.224;11.422;2023-09-19T13:51:02;23.10;90.40
33476;DHT22;19814;48.224;11.422;2023-09-19T13:53:29;23.10;89.30
33476;DHT22;19814;48.224;11.422;2023-09-19T13:55:54;23.10;90.20
33476;DHT22;19814;48.224;11.422;2023-09-19T13:58:20;23.00;90.00
33476;DHT22;19814;48.224;11.422;2023-09-19T14:00:46;22.80;90.30
33476;DHT22;19814;48.224;11.422;2023-09-19T14:03:12;22.50;90.30
33476;DHT22;19814;48.224;11.422;2023-09-19T14:05:37;22.30;90.70
33476;DHT22;19814;48.224;11.422;2023-09-19T14:08:03;22.40;91.20
33476;DHT22;19814;48.224;11.422;2023-09-19T14:10:29;22.40;91.20
33476;DHT22;19814;48.224;11.422;2023-09-19T14:12:57;22.50;90.50
33476;DHT22;19814;48.224;11.422;2023-09-19T14:15:28;22.40;91.00
33476;DHT22;19814;48.224;11.422;2023-09-19T14:17:58;22.30;91.10
33476;DHT22;19814;48.224;11.422;2023-09-19T14:20:24;22.30;91.00
33476;DHT22;19814;48.224;11.422;2023-09-19T14:22:50;22.20;90.70
33476;DHT22;19814;48.224;11.422;2023-09-19T14:25:16;22.20;90.90
33476;DHT22;19814;48.224;11.422;2023-09-19T14:27:42;22.20;91.10
33476;DHT22;19814;48.224;11.422;2023-09-19T14:30:08;22.20;91.40
33476;DHT22;19814;48.224;11.422;2023-09-19T14:32:35;22.20;91.90
33476;DHT22;19814;48.224;11.422;2023-09-19T14:35:02;22.30;91.10
33476;DHT22;19814;48.224;11.422;2023-09-19T14:37:28;22.40;91.00
33476;DHT22;19814;48.224;11.422;2023-09-19T14:39:54;22.50;91.00
33476;DHT22;19814;48.224;11.422;2023-09-19T14:42:20;22.60;90.40
33476;DHT22;19814;48.224;11.422;2023-09-19T14:44:46;22.80;91.10
33476;DHT22;19814;48.224;11.422;2023-09-19T14:47:13;22.70;90.50
33476;DHT22;19814;48.224;11.422;2023-09-19T14:49:39;22.80;89.60
33476;DHT22;19814;48.224;11.422;2023-09-19T14:52:09;22.90;89.90
33476;DHT22;19814;48.224;11.422;2023-09-19T14:54:36;22.80;90.30
33476;DHT22;19814;48.224;11.422;2023-09-19T14:57:03;22.80;90.60
33476;DHT22;19814;48.224;11.422;2023-09-19T14:59:32;22.70;90.00
33476;DHT22;19814;48.224;11.422;2023-09-19T15:01:59;22.60;89.50
33476;DHT22;19814;48.224;11.422;2023-09-19T15:04:25;22.60;90.50
33476;DHT22;19814;48.224;11.422;2023-09-19T15:06:51;22.50;90.30
33476;DHT22;19814;48.224;11.422;2023-09-19T15:09:21;22.60;91.10
33476;DHT22;19814;48.224;11.422;2023-09-19T15:11:51;22.60;90.60
33476;DHT22;19814;48.224;11.422;2023-09-19T15:14:17;22.70;90.50
33476;DHT22;19814;48.224;11.422;2023-09-19T15:16:43;22.70;89.50
33476;DHT22;19814;48.224;11.422;2023-09-19T15:19:09;22.70;90.20
33476;DHT22;19814;48.224;11.422;2023-09-19T15:21:35;22.70;89.70
33476;DHT22;19814;48.224;11.422;2023-09-19T15:24:03;22.70;90.00
33476;DHT22;19814;48.224;11.422;2023-09-19T15:26:29;22.60;88.90
33476;DHT22;19814;48.224;11.422;2023-09-19T15:28:55;22.60;90.00
33476;DHT22;19814;48.224;11.422;2023-09-19T15:31:21;22.50;90.10
33476;DHT22;19814;48.224;11.422;2023-09-19T15:33:47;22.50;90.50
33476;DHT22;19814;48.224;11.422;2023-09-19T15:36:14;22.50;90.80
33476;DHT22;19814;48.224;11.422;2023-09-19T15:41:29;22.60;90.90
33476;DHT22;19814;48.224;11.422;2023-09-19T15:43:56;22.50;90.70
33476;DHT22;19814;48.224;11.422;2023-09-19T15:46:22;22.40;90.20
33476;DHT22;19814;48.224;11.422;2023-09-19T15:48:48;22.40;88.10
33476;DHT22;19814;48.224;11.422;2023-09-19T15:51:14;22.30;88.70
33476;DHT22;19814;48.224;11.422;2023-09-19T15:53:49;22.20;88.00
33476;DHT22;19814;48.224;11.422;2023-09-19T15:56:19;22.20;88.10
33476;DHT22;19814;48.224;11.422;2023-09-19T15:58:47;22.20;86.70
33476;DHT22;19814;48.224;11.422;2023-09-19T16:01:13;22.10;87.50
33476;DHT22;19814;48.224;11.422;2023-09-19T16:03:43;22.00;86.70
33476;DHT22;19814;48.224;11.422;2023-09-19T16:06:13;22.00;87.80